sensor_id;sensor_type;location;lat;lon;timestamp;pressure;altitude;pressure_sealevel;temperature;humidity
60719;BME280;46567;51.660;5.824;2023-01-30T00:02:53;101740.0;;;5.8;87.0
60719;BME280;46567;51.660;5.824;2023-01-30T00:07:53;101720.0;;;5.9;87.0
60719;BME280;46567;51.660;5.824;2023-01-30T00:12:52;101710.0;;;5.9;87.5
60719;BME280;46567;51.660;5.824;2023-01-30T00:17:53;101700.0;;;6.0;87.5
60719;BME280;46567;51.660;5.824;2023-01-30T00:22:52;101700.0;;;6.0;87.5
60719;BME280;46567;51.660;5.824;2023-01-30T00:27:53;101720.0;;;6.0;88.0
60719;BME280;46567;51.660;5.824;2023-01-30T00:32:53;101710.0;;;6.1;88.0
60719;BME280;46567;51.660;5.824;2023-01-30T00:37:54;101690.0;;;6.2;88.0
60719;BME280;46567;51.660;5.824;2023-01-30T00:42:53;101690.0;;;6.2;88.0
60719;BME280;46567;51.660;5.824;2023-01-30T00:47:53;101680.0;;;6.3;88.5
60719;BME280;46567;51.660;5.824;2023-01-30T00:52:52;101690.0;;;6.3;88.5
60719;BME280;46567;51.660;5.824;2023-01-30T00:57:53;101680.0;;;6.4;88.5
60719;BME280;46567;51.660;5.824;2023-01-30T01:02:53;101670.0;;;6.5;88.5
60719;BME280;46567;51.660;5.824;2023-01-30T01:07:53;101670.0;;;6.5;89.0
60719;BME280;46567;51.660;5.824;2023-01-30T01:12:52;101670.0;;;6.6;89.0
60719;BME280;46567;51.660;5.824;2023-01-30T01:17:54;101650.0;;;6.6;89.0
60719;BME280;46567;51.660;5.824;2023-01-30T01:22:53;101650.0;;;6.7;89.0
60719;BME280;46567;51.660;5.824;2023-01-30T01:27:53;101650.0;;;6.8;89.0
60719;BME280;46567;51.660;5.824;2023-01-30T01:32:53;101640.0;;;6.8;89.0
60719;BME280;46567;51.660;5.824;2023-01-30T01:37:53;101650.0;;;6.9;89.5
60719;BME280;46567;51.660;5.824;2023-01-30T01:42:53;101650.0;;;6.9;89.0
60719;BME280;46567;51.660;5.824;2023-01-30T01:47:59;101640.0;;;6.9;89.5
60719;BME280;46567;51.660;5.824;2023-01-30T01:52:54;101620.0;;;7.0;89.5
60719;BME280;46567;51.660;5.824;2023-01-30T01:57:57;101590.0;;;7.0;89.5
60719;BME280;46567;51.660;5.824;2023-01-30T02:02:56;101600.0;;;7.1;89.5
60719;BME280;46567;51.660;5.824;2023-01-30T02:08:02;101590.0;;;7.1;90.0
60719;BME280;46567;51.660;5.824;2023-01-30T02:12:53;101590.0;;;7.2;90.0
60719;BME280;46567;51.660;5.824;2023-01-30T02:17:53;101580.0;;;7.2;90.0
60719;BME280;46567;51.660;5.824;2023-01-30T02:24:47;101580.0;;;7.2;90.0
60719;BME280;46567;51.660;5.824;2023-01-30T02:31:46;101570.0;;;7.2;90.5
60719;BME280;46567;51.660;5.824;2023-01-30T02:37:27;101560.0;;;7.2;90.5
60719;BME280;46567;51.660;5.824;2023-01-30T02:43:06;101560.0;;;7.3;91.0
60719;BME280;46567;51.660;5.824;2023-01-30T02:47:35;101540.0;;;7.3;90.5
60719;BME280;46567;51.660;5.824;2023-01-30T02:51:01;101550.0;;;7.3;91.0
60719;BME280;46567;51.660;5.824;2023-01-30T02:52:53;101540.0;;;7.3;91.0
60719;BME280;46567;51.660;5.824;2023-01-30T02:57:53;101540.0;;;7.3;91.0
60719;BME280;46567;51.660;5.824;2023-01-30T03:03:51;101520.0;;;7.3;91.0
60719;BME280;46567;51.660;5.824;2023-01-30T03:09:50;101530.0;;;7.3;91.5
60719;BME280;46567;51.660;5.824;2023-01-30T03:13:10;101520.0;;;7.3;91.5
60719;BME280;46567;51.660;5.824;2023-01-30T03:17:53;101510.0;;;7.3;91.5
60719;BME280;46567;51.660;5.824;2023-01-30T03:22:53;101510.0;;;7.3;92.5
60719;BME280;46567;51.660;5.824;2023-01-30T03:27:54;101510.0;;;7.2;92.0
60719;BME280;46567;51.660;5.824;2023-01-30T03:32:53;101490.0;;;7.2;92.5
60719;BME280;46567;51.660;5.824;2023-01-30T03:37:53;101510.0;;;7.2;92.5
60719;BME280;46567;51.660;5.824;2023-01-30T03:42:53;101480.0;;;7.2;92.5
60719;BME280;46567;51.660;5.824;2023-01-30T03:47:53;101480.0;;;7.2;93.0
60719;BME280;46567;51.660;5.824;2023-01-30T03:52:53;101480.0;;;7.2;93.0
60719;BME280;46567;51.660;5.824;2023-01-30T03:57:54;101480.0;;;7.2;93.5
60719;BME280;46567;51.660;5.824;2023-01-30T04:02:53;101470.0;;;7.2;93.5
60719;BME280;46567;51.660;5.824;2023-01-30T04:07:55;101480.0;;;7.2;93.5
60719;BME280;46567;51.660;5.824;2023-01-30T04:12:53;101480.0;;;7.2;94.0
60719;BME280;46567;51.660;5.824;2023-01-30T04:17:53;101490.0;;;7.2;94.0
60719;BME280;46567;51.660;5.824;2023-01-30T04:22:53;101480.0;;;7.2;94.5
60719;BME280;46567;51.660;5.824;2023-01-30T04:27:53;101480.0;;;7.3;94.5
60719;BME280;46567;51.660;5.824;2023-01-30T04:32:53;101470.0;;;7.3;94.5
60719;BME280;46567;51.660;5.824;2023-01-30T04:37:53;101460.0;;;7.4;94.5
60719;BME280;46567;51.660;5.824;2023-01-30T04:42:53;101480.0;;;7.4;94.5
60719;BME280;46567;51.660;5.824;2023-01-30T04:47:53;101480.0;;;7.5;95.0
60719;BME280;46567;51.660;5.824;2023-01-30T04:52:53;101480.0;;;7.5;95.0
60719;BME280;46567;51.660;5.824;2023-01-30T04:57:53;101470.0;;;7.6;95.0
60719;BME280;46567;51.660;5.824;2023-01-30T05:02:53;101470.0;;;7.7;95.5
60719;BME280;46567;51.660;5.824;2023-01-30T05:07:53;101490.0;;;7.8;95.5
60719;BME280;46567;51.660;5.824;2023-01-30T05:12:53;101470.0;;;7.8;95.0
60719;BME280;46567;51.660;5.824;2023-01-30T05:17:53;101470.0;;;7.9;95.5
60719;BME280;46567;51.660;5.824;2023-01-30T05:22:53;101470.0;;;8.0;95.0
60719;BME280;46567;51.660;5.824;2023-01-30T05:27:53;101470.0;;;8.0;95.0
60719;BME280;46567;51.660;5.824;2023-01-30T05:32:53;101470.0;;;8.1;95.0
60719;BME280;46567;51.660;5.824;2023-01-30T05:37:53;101470.0;;;8.1;95.0
60719;BME280;46567;51.660;5.824;2023-01-30T05:42:53;101480.0;;;8.1;95.0
60719;BME280;46567;51.660;5.824;2023-01-30T05:47:53;101480.0;;;8.1;94.5
60719;BME280;46567;51.660;5.824;2023-01-30T05:52:53;101490.0;;;8.1;94.5
60719;BME280;46567;51.660;5.824;2023-01-30T05:57:53;101470.0;;;8.1;94.5
60719;BME280;46567;51.660;5.824;2023-01-30T06:02:53;101500.0;;;8.1;94.5
60719;BME280;46567;51.660;5.824;2023-01-30T06:07:53;101490.0;;;8.1;94.0
60719;BME280;46567;51.660;5.824;2023-01-30T06:12:53;101500.0;;;8.1;94.0
60719;BME280;46567;51.660;5.824;2023-01-30T06:17:53;101490.0;;;8.1;94.0
60719;BME280;46567;51.660;5.824;2023-01-30T06:22:53;101500.0;;;8.1;94.0
60719;BME280;46567;51.660;5.824;2023-01-30T06:27:53;101520.0;;;8.1;93.5
60719;BME280;46567;51.660;5.824;2023-01-30T06:32:53;101530.0;;;8.1;93.5
60719;BME280;46567;51.660;5.824;2023-01-30T06:37:53;101540.0;;;8.1;93.0
60719;BME280;46567;51.660;5.824;2023-01-30T06:42:53;101550.0;;;8.0;93.0
60719;BME280;46567;51.660;5.824;2023-01-30T06:47:54;101540.0;;;8.0;92.5
60719;BME280;46567;51.660;5.824;2023-01-30T06:52:54;101540.0;;;7.9;92.5
60719;BME280;46567;51.660;5.824;2023-01-30T06:58:01;101540.0;;;7.8;92.5
60719;BME280;46567;51.660;5.824;2023-01-30T07:02:53;101530.0;;;7.8;92.0
60719;BME280;46567;51.660;5.824;2023-01-30T07:07:53;101540.0;;;7.7;91.5
60719;BME280;46567;51.660;5.824;2023-01-30T07:12:53;101530.0;;;7.6;91.0
60719;BME280;46567;51.660;5.824;2023-01-30T07:17:53;101530.0;;;7.5;91.0
60719;BME280;46567;51.660;5.824;2023-01-30T07:22:54;101540.0;;;7.5;91.0
60719;BME280;46567;51.660;5.824;2023-01-30T07:27:54;101550.0;;;7.4;90.5
60719;BME280;46567;51.660;5.824;2023-01-30T07:32:54;101560.0;;;7.3;90.5
60719;BME280;46567;51.660;5.824;2023-01-30T07:37:53;101580.0;;;7.3;90.0
60719;BME280;46567;51.660;5.824;2023-01-30T07:42:55;101580.0;;;7.3;90.0
60719;BME280;46567;51.660;5.824;2023-01-30T07:47:53;101570.0;;;7.3;90.0
60719;BME280;46567;51.660;5.824;2023-01-30T07:52:53;101580.0;;;7.3;90.0
60719;BME280;46567;51.660;5.824;2023-01-30T07:57:53;101590.0;;;7.2;90.0
60719;BME280;46567;51.660;5.824;2023-01-30T08:02:53;101600.0;;;7.2;89.5
60719;BME280;46567;51.660;5.824;2023-01-30T08:07:54;101590.0;;;7.2;89.5
60719;BME280;46567;51.660;5.824;2023-01-30T08:12:53;101600.0;;;7.2;89.5
60719;BME280;46567;51.660;5.824;2023-01-30T08:17:54;101600.0;;;7.2;89.5
60719;BME280;46567;51.660;5.824;2023-01-30T08:22:53;101600.0;;;7.2;89.0
60719;BME280;46567;51.660;5.824;2023-01-30T08:27:53;101600.0;;;7.2;89.0
60719;BME280;46567;51.660;5.824;2023-01-30T08:32:53;101600.0;;;7.2;88.5
60719;BME280;46567;51.660;5.824;2023-01-30T08:37:53;101620.0;;;7.2;88.0
60719;BME280;46567;51.660;5.824;2023-01-30T08:42:53;101620.0;;;7.3;88.0
60719;BME280;46567;51.660;5.824;2023-01-30T08:47:56;101630.0;;;7.3;87.5
60719;BME280;46567;51.660;5.824;2023-01-30T08:52:53;101630.0;;;7.3;87.5
60719;BME280;46567;51.660;5.824;2023-01-30T08:57:55;101640.0;;;7.4;87.0
60719;BME280;46567;51.660;5.824;2023-01-30T09:02:53;101650.0;;;7.4;87.0
60719;BME280;46567;51.660;5.824;2023-01-30T09:07:53;101640.0;;;7.5;86.5
60719;BME280;46567;51.660;5.824;2023-01-30T09:12:53;101650.0;;;7.5;86.0
60719;BME280;46567;51.660;5.824;2023-01-30T09:17:53;101660.0;;;7.6;85.5
60719;BME280;46567;51.660;5.824;2023-01-30T09:22:53;101660.0;;;7.6;85.5
60719;BME280;46567;51.660;5.824;2023-01-30T09:27:53;101660.0;;;7.7;85.0
60719;BME280;46567;51.660;5.824;2023-01-30T09:32:54;101660.0;;;7.9;84.5
60719;BME280;46567;51.660;5.824;2023-01-30T09:37:53;101680.0;;;8.1;84.5
60719;BME280;46567;51.660;5.824;2023-01-30T09:43:36;101680.0;;;8.2;83.0
60719;BME280;46567;51.660;5.824;2023-01-30T09:48:42;101690.0;;;8.3;82.5
60719;BME280;46567;51.660;5.824;2023-01-30T09:54:27;101680.0;;;8.4;82.0
60719;BME280;46567;51.660;5.824;2023-01-30T09:57:53;101680.0;;;8.5;81.0
60719;BME280;46567;51.660;5.824;2023-01-30T10:03:03;101670.0;;;8.5;81.0
60719;BME280;46567;51.660;5.824;2023-01-30T10:08:51;101700.0;;;8.6;81.0
60719;BME280;46567;51.660;5.824;2023-01-30T10:14:35;101710.0;;;8.6;80.5
60719;BME280;46567;51.660;5.824;2023-01-30T10:20:11;101710.0;;;8.6;80.0
60719;BME280;46567;51.660;5.824;2023-01-30T10:25:56;101710.0;;;8.7;80.0
60719;BME280;46567;51.660;5.824;2023-01-30T10:28:02;101710.0;;;8.7;80.0
60719;BME280;46567;51.660;5.824;2023-01-30T10:33:00;101700.0;;;8.8;80.0
60719;BME280;46567;51.660;5.824;2023-01-30T10:38:11;101720.0;;;8.9;79.5
60719;BME280;46567;51.660;5.824;2023-01-30T10:43:05;101700.0;;;9.0;79.0
60719;BME280;46567;51.660;5.824;2023-01-30T10:48:51;101730.0;;;9.0;78.0
60719;BME280;46567;51.660;5.824;2023-01-30T10:53:12;101730.0;;;9.0;77.5
60719;BME280;46567;51.660;5.824;2023-01-30T10:58:26;101720.0;;;8.9;77.5
60719;BME280;46567;51.660;5.824;2023-01-30T11:03:17;101730.0;;;8.9;77.5
60719;BME280;46567;51.660;5.824;2023-01-30T11:07:53;101730.0;;;9.0;78.0
60719;BME280;46567;51.660;5.824;2023-01-30T11:12:54;101720.0;;;9.0;77.0
60719;BME280;46567;51.660;5.824;2023-01-30T11:23:03;101720.0;;;9.1;77.0
60719;BME280;46567;51.660;5.824;2023-01-30T11:27:54;101730.0;;;9.1;77.0
60719;BME280;46567;51.660;5.824;2023-01-30T11:33:10;101720.0;;;9.2;76.5
60719;BME280;46567;51.660;5.824;2023-01-30T11:38:09;101740.0;;;9.2;76.5
60719;BME280;46567;51.660;5.824;2023-01-30T11:42:58;101730.0;;;9.2;76.5
60719;BME280;46567;51.660;5.824;2023-01-30T11:47:57;101740.0;;;9.2;76.5
60719;BME280;46567;51.660;5.824;2023-01-30T11:52:53;101720.0;;;9.2;76.5
60719;BME280;46567;51.660;5.824;2023-01-30T11:57:55;101720.0;;;9.3;76.5
60719;BME280;46567;51.660;5.824;2023-01-30T12:02:55;101730.0;;;9.4;75.5
60719;BME280;46567;51.660;5.824;2023-01-30T12:08:10;101730.0;;;9.4;75.5
60719;BME280;46567;51.660;5.824;2023-01-30T12:13:15;101720.0;;;9.5;75.5
60719;BME280;46567;51.660;5.824;2023-01-30T12:18:04;101730.0;;;9.4;75.0
60719;BME280;46567;51.660;5.824;2023-01-30T12:23:25;101740.0;;;9.5;74.5
60719;BME280;46567;51.660;5.824;2023-01-30T12:28:01;101740.0;;;9.6;75.5
60719;BME280;46567;51.660;5.824;2023-01-30T12:32:57;101750.0;;;9.8;74.5
60719;BME280;46567;51.660;5.824;2023-01-30T12:38:23;101750.0;;;9.7;74.0
60719;BME280;46567;51.660;5.824;2023-01-30T12:44:20;101750.0;;;9.6;74.0
60719;BME280;46567;51.660;5.824;2023-01-30T12:50:04;101770.0;;;9.7;73.5
60719;BME280;46567;51.660;5.824;2023-01-30T12:56:21;101770.0;;;9.8;74.0
60719;BME280;46567;51.660;5.824;2023-01-30T13:01:19;101770.0;;;9.8;73.5
60719;BME280;46567;51.660;5.824;2023-01-30T13:06:36;101770.0;;;9.7;73.5
60719;BME280;46567;51.660;5.824;2023-01-30T13:12:15;101770.0;;;9.6;73.5
60719;BME280;46567;51.660;5.824;2023-01-30T13:17:32;101780.0;;;9.6;73.0
60719;BME280;46567;51.660;5.824;2023-01-30T13:21:39;101790.0;;;9.5;73.0
60719;BME280;46567;51.660;5.824;2023-01-30T13:26:08;101800.0;;;9.5;73.0
60719;BME280;46567;51.660;5.824;2023-01-30T13:28:44;101800.0;;;9.6;72.5
60719;BME280;46567;51.660;5.824;2023-01-30T13:32:55;101810.0;;;9.6;72.5
60719;BME280;46567;51.660;5.824;2023-01-30T13:37:55;101800.0;;;9.6;72.0
60719;BME280;46567;51.660;5.824;2023-01-30T13:42:57;101820.0;;;9.6;72.0
60719;BME280;46567;51.660;5.824;2023-01-30T13:48:26;101820.0;;;9.6;71.5
60719;BME280;46567;51.660;5.824;2023-01-30T13:53:04;101830.0;;;9.5;72.5
60719;BME280;46567;51.660;5.824;2023-01-30T13:58:11;101830.0;;;9.5;72.5
60719;BME280;46567;51.660;5.824;2023-01-30T14:03:23;101850.0;;;9.4;72.0
60719;BME280;46567;51.660;5.824;2023-01-30T14:07:53;101860.0;;;9.3;72.5
60719;BME280;46567;51.660;5.824;2023-01-30T14:22:54;101890.0;;;9.1;73.0
60719;BME280;46567;51.660;5.824;2023-01-30T14:28:47;101900.0;;;9.1;73.5
60719;BME280;46567;51.660;5.824;2023-01-30T14:33:48;101900.0;;;9.1;73.5
60719;BME280;46567;51.660;5.824;2023-01-30T14:38:12;101910.0;;;9.2;73.5
60719;BME280;46567;51.660;5.824;2023-01-30T14:43:33;101920.0;;;9.3;74.0
60719;BME280;46567;51.660;5.824;2023-01-30T14:48:25;101930.0;;;9.4;73.5
60719;BME280;46567;51.660;5.824;2023-01-30T14:52:54;101940.0;;;9.3;73.5
60719;BME280;46567;51.660;5.824;2023-01-30T14:57:56;101950.0;;;9.3;73.5
60719;BME280;46567;51.660;5.824;2023-01-30T15:02:55;101950.0;;;9.2;74.0
60719;BME280;46567;51.660;5.824;2023-01-30T15:08:04;101970.0;;;9.1;74.0
60719;BME280;46567;51.660;5.824;2023-01-30T15:13:24;101980.0;;;9.1;74.0
60719;BME280;46567;51.660;5.824;2023-01-30T15:19:28;101990.0;;;9.0;74.0
60719;BME280;46567;51.660;5.824;2023-01-30T15:25:26;101990.0;;;9.0;74.0
60719;BME280;46567;51.660;5.824;2023-01-30T15:30:39;102000.0;;;9.0;74.0
60719;BME280;46567;51.660;5.824;2023-01-30T15:33:07;102010.0;;;9.0;74.5
60719;BME280;46567;51.660;5.824;2023-01-30T15:37:55;102010.0;;;8.9;74.5
60719;BME280;46567;51.660;5.824;2023-01-30T15:43:03;102030.0;;;8.9;74.5
60719;BME280;46567;51.660;5.824;2023-01-30T15:48:18;102030.0;;;8.9;74.5
60719;BME280;46567;51.660;5.824;2023-01-30T15:52:53;102040.0;;;8.8;74.5
60719;BME280;46567;51.660;5.824;2023-01-30T15:57:55;102060.0;;;8.8;75.0
60719;BME280;46567;51.660;5.824;2023-01-30T16:02:54;102050.0;;;8.7;75.0
60719;BME280;46567;51.660;5.824;2023-01-30T16:07:54;102060.0;;;8.7;75.0
60719;BME280;46567;51.660;5.824;2023-01-30T16:12:54;102070.0;;;8.7;75.0
60719;BME280;46567;51.660;5.824;2023-01-30T16:18:01;102080.0;;;8.7;75.0
60719;BME280;46567;51.660;5.824;2023-01-30T16:22:53;102090.0;;;8.6;75.5
60719;BME280;46567;51.660;5.824;2023-01-30T16:27:53;102090.0;;;8.6;75.5
60719;BME280;46567;51.660;5.824;2023-01-30T16:32:54;102100.0;;;8.6;75.5
60719;BME280;46567;51.660;5.824;2023-01-30T16:37:55;102110.0;;;8.6;76.0
60719;BME280;46567;51.660;5.824;2023-01-30T16:42:55;102120.0;;;8.6;76.0
60719;BME280;46567;51.660;5.824;2023-01-30T16:47:53;102130.0;;;8.6;75.5
60719;BME280;46567;51.660;5.824;2023-01-30T16:52:54;102140.0;;;8.5;76.0
60719;BME280;46567;51.660;5.824;2023-01-30T16:57:57;102150.0;;;8.5;76.0
60719;BME280;46567;51.660;5.824;2023-01-30T17:02:58;102170.0;;;8.5;76.0
60719;BME280;46567;51.660;5.824;2023-01-30T17:07:54;102170.0;;;8.4;76.0
60719;BME280;46567;51.660;5.824;2023-01-30T17:12:53;102180.0;;;8.4;76.5
60719;BME280;46567;51.660;5.824;2023-01-30T17:17:53;102190.0;;;8.3;76.5
60719;BME280;46567;51.660;5.824;2023-01-30T17:23:02;102200.0;;;8.3;77.0
60719;BME280;46567;51.660;5.824;2023-01-30T17:27:53;102210.0;;;8.1;77.0
60719;BME280;46567;51.660;5.824;2023-01-30T17:32:53;102210.0;;;8.0;77.5
60719;BME280;46567;51.660;5.824;2023-01-30T17:37:53;102220.0;;;7.8;77.5
60719;BME280;46567;51.660;5.824;2023-01-30T17:42:53;102240.0;;;7.7;78.0
60719;BME280;46567;51.660;5.824;2023-01-30T17:47:53;102240.0;;;7.5;78.0
60719;BME280;46567;51.660;5.824;2023-01-30T17:52:53;102240.0;;;7.4;78.5
60719;BME280;46567;51.660;5.824;2023-01-30T17:57:53;102240.0;;;7.3;79.0
60719;BME280;46567;51.660;5.824;2023-01-30T18:02:53;102250.0;;;7.2;79.0
60719;BME280;46567;51.660;5.824;2023-01-30T18:07:53;102250.0;;;7.1;79.0
60719;BME280;46567;51.660;5.824;2023-01-30T18:12:53;102270.0;;;7.0;79.5
60719;BME280;46567;51.660;5.824;2023-01-30T18:17:53;102280.0;;;7.0;79.5
60719;BME280;46567;51.660;5.824;2023-01-30T18:22:53;102280.0;;;7.0;79.5
60719;BME280;46567;51.660;5.824;2023-01-30T18:27:53;102290.0;;;7.0;79.5
60719;BME280;46567;51.660;5.824;2023-01-30T18:32:53;102290.0;;;6.9;79.5
60719;BME280;46567;51.660;5.824;2023-01-30T18:37:53;102290.0;;;6.8;79.5
60719;BME280;46567;51.660;5.824;2023-01-30T18:42:53;102280.0;;;6.8;79.5
60719;BME280;46567;51.660;5.824;2023-01-30T18:47:53;102290.0;;;6.7;80.0
60719;BME280;46567;51.660;5.824;2023-01-30T18:52:53;102300.0;;;6.6;80.0
60719;BME280;46567;51.660;5.824;2023-01-30T18:57:53;102300.0;;;6.6;80.0
60719;BME280;46567;51.660;5.824;2023-01-30T19:02:53;102310.0;;;6.5;80.0
60719;BME280;46567;51.660;5.824;2023-01-30T19:07:53;102310.0;;;6.5;80.0
60719;BME280;46567;51.660;5.824;2023-01-30T19:12:53;102310.0;;;6.5;80.5
60719;BME280;46567;51.660;5.824;2023-01-30T19:17:53;102320.0;;;6.6;80.5
60719;BME280;46567;51.660;5.824;2023-01-30T19:22:53;102320.0;;;6.6;80.5
60719;BME280;46567;51.660;5.824;2023-01-30T19:27:53;102330.0;;;6.5;80.5
60719;BME280;46567;51.660;5.824;2023-01-30T19:32:53;102320.0;;;6.5;80.5
60719;BME280;46567;51.660;5.824;2023-01-30T19:37:54;102340.0;;;6.4;80.5
60719;BME280;46567;51.660;5.824;2023-01-30T19:42:53;102340.0;;;6.3;81.0
60719;BME280;46567;51.660;5.824;2023-01-30T19:47:53;102340.0;;;6.2;81.0
60719;BME280;46567;51.660;5.824;2023-01-30T19:52:53;102350.0;;;6.1;81.0
60719;BME280;46567;51.660;5.824;2023-01-30T19:57:53;102350.0;;;6.0;81.5
60719;BME280;46567;51.660;5.824;2023-01-30T20:02:53;102350.0;;;6.0;81.5
60719;BME280;46567;51.660;5.824;2023-01-30T20:07:53;102350.0;;;5.9;81.5
60719;BME280;46567;51.660;5.824;2023-01-30T20:12:53;102360.0;;;5.9;82.0
60719;BME280;46567;51.660;5.824;2023-01-30T20:17:53;102350.0;;;5.9;82.0
60719;BME280;46567;51.660;5.824;2023-01-30T20:22:53;102350.0;;;5.8;82.0
60719;BME280;46567;51.660;5.824;2023-01-30T20:27:53;102350.0;;;5.8;82.0
60719;BME280;46567;51.660;5.824;2023-01-30T20:32:53;102360.0;;;5.8;82.0
60719;BME280;46567;51.660;5.824;2023-01-30T20:37:53;102360.0;;;5.8;82.5
60719;BME280;46567;51.660;5.824;2023-01-30T20:42:53;102370.0;;;5.8;82.5
60719;BME280;46567;51.660;5.824;2023-01-30T20:47:53;102390.0;;;5.8;82.5
60719;BME280;46567;51.660;5.824;2023-01-30T20:52:53;102370.0;;;5.8;82.5
60719;BME280;46567;51.660;5.824;2023-01-30T20:57:53;102370.0;;;5.7;82.5
60719;BME280;46567;51.660;5.824;2023-01-30T21:02:53;102380.0;;;5.7;82.5
60719;BME280;46567;51.660;5.824;2023-01-30T21:07:53;102380.0;;;5.7;82.5
60719;BME280;46567;51.660;5.824;2023-01-30T21:12:53;102380.0;;;5.7;82.5
60719;BME280;46567;51.660;5.824;2023-01-30T21:17:53;102390.0;;;5.6;82.5
60719;BME280;46567;51.660;5.824;2023-01-30T21:22:53;102380.0;;;5.6;83.0
60719;BME280;46567;51.660;5.824;2023-01-30T21:27:53;102390.0;;;5.5;83.0
60719;BME280;46567;51.660;5.824;2023-01-30T21:32:53;102380.0;;;5.6;83.0
60719;BME280;46567;51.660;5.824;2023-01-30T21:42:53;102400.0;;;5.5;83.0
60719;BME280;46567;51.660;5.824;2023-01-30T21:47:53;102410.0;;;5.5;83.0
60719;BME280;46567;51.660;5.824;2023-01-30T21:52:53;102410.0;;;5.5;83.5
60719;BME280;46567;51.660;5.824;2023-01-30T21:57:53;102410.0;;;5.5;83.5
60719;BME280;46567;51.660;5.824;2023-01-30T22:02:53;102400.0;;;5.5;83.5
60719;BME280;46567;51.660;5.824;2023-01-30T22:07:53;102410.0;;;5.5;83.5
60719;BME280;46567;51.660;5.824;2023-01-30T22:12:54;102400.0;;;5.5;83.5
60719;BME280;46567;51.660;5.824;2023-01-30T22:17:53;102410.0;;;5.5;83.5
60719;BME280;46567;51.660;5.824;2023-01-30T22:22:53;102430.0;;;5.5;83.5
60719;BME280;46567;51.660;5.824;2023-01-30T22:27:53;102400.0;;;5.5;83.5
60719;BME280;46567;51.660;5.824;2023-01-30T22:32:53;102400.0;;;5.4;83.5
60719;BME280;46567;51.660;5.824;2023-01-30T22:37:53;102400.0;;;5.4;83.5
60719;BME280;46567;51.660;5.824;2023-01-30T22:42:53;102410.0;;;5.3;83.5
60719;BME280;46567;51.660;5.824;2023-01-30T22:47:53;102410.0;;;5.3;83.5
60719;BME280;46567;51.660;5.824;2023-01-30T22:52:53;102420.0;;;5.3;83.5
60719;BME280;46567;51.660;5.824;2023-01-30T22:57:53;102400.0;;;5.2;83.5
60719;BME280;46567;51.660;5.824;2023-01-30T23:02:54;102400.0;;;5.2;83.5
60719;BME280;46567;51.660;5.824;2023-01-30T23:07:53;102400.0;;;5.1;83.5
60719;BME280;46567;51.660;5.824;2023-01-30T23:12:53;102390.0;;;4.9;83.5
60719;BME280;46567;51.660;5.824;2023-01-30T23:17:53;102390.0;;;4.8;83.5
60719;BME280;46567;51.660;5.824;2023-01-30T23:22:53;102390.0;;;4.7;83.5
60719;BME280;46567;51.660;5.824;2023-01-30T23:27:53;102380.0;;;4.5;83.5
60719;BME280;46567;51.660;5.824;2023-01-30T23:32:53;102390.0;;;4.4;84.0
60719;BME280;46567;51.660;5.824;2023-01-30T23:37:53;102380.0;;;4.3;84.0
60719;BME280;46567;51.660;5.824;2023-01-30T23:42:53;102390.0;;;4.2;84.0
60719;BME280;46567;51.660;5.824;2023-01-30T23:47:53;102380.0;;;4.2;84.5
60719;BME280;46567;51.660;5.824;2023-01-30T23:52:53;102390.0;;;4.1;84.5
60719;BME280;46567;51.660;5.824;2023-01-30T23:57:53;102380.0;;;4.1;84.5
